sensor_id;sensor_type;location;lat;lon;timestamp;P1;durP1;ratioP1;P2;durP2;ratioP2
17844;SDS011;9047;53.486;10.218;2024-03-02T00:01:57;41.00;;;21.52;;
17844;SDS011;9047;53.486;10.218;2024-03-02T00:04:23;44.30;;;22.70;;
17844;SDS011;9047;53.486;10.218;2024-03-02T00:06:55;44.22;;;22.52;;
17844;SDS011;9047;53.486;10.218;2024-03-02T00:09:24;43.65;;;22.83;;
17844;SDS011;9047;53.486;10.218;2024-03-02T00:11:54;45.17;;;22.60;;
17844;SDS011;9047;53.486;10.218;2024-03-02T00:14:21;42.38;;;22.33;;
17844;SDS011;9047;53.486;10.218;2024-03-02T00:16:50;43.08;;;22.48;;
17844;SDS011;9047;53.486;10.218;2024-03-02T00:19:18;45.75;;;23.00;;
17844;SDS011;9047;53.486;10.218;2024-03-02T00:21:47;43.03;;;22.75;;
17844;SDS011;9047;53.486;10.218;2024-03-02T00:24:17;45.47;;;23.45;;
17844;SDS011;9047;53.486;10.218;2024-03-02T00:26:49;45.80;;;23.10;;
17844;SDS011;9047;53.486;10.218;2024-03-02T00:29:19;43.17;;;22.33;;
17844;SDS011;9047;53.486;10.218;2024-03-02T00:31:46;45.47;;;23.95;;
17844;SDS011;9047;53.486;10.218;2024-03-02T00:34:16;44.75;;;23.23;;
17844;SDS011;9047;53.486;10.218;2024-03-02T00:36:44;45.03;;;23.10;;
17844;SDS011;9047;53.486;10.218;2024-03-02T00:39:14;49.03;;;23.95;;
17844;SDS011;9047;53.486;10.218;2024-03-02T00:41:44;45.70;;;23.45;;
17844;SDS011;9047;53.486;10.218;2024-03-02T00:44:14;46.63;;;23.70;;
17844;SDS011;9047;53.486;10.218;2024-03-02T00:46:43;46.28;;;23.88;;
17844;SDS011;9047;53.486;10.218;2024-03-02T00:49:11;45.58;;;22.98;;
17844;SDS011;9047;53.486;10.218;2024-03-02T00:51:45;46.95;;;23.17;;
17844;SDS011;9047;53.486;10.218;2024-03-02T00:54:13;49.20;;;24.10;;
17844;SDS011;9047;53.486;10.218;2024-03-02T00:56:41;47.85;;;24.50;;
17844;SDS011;9047;53.486;10.218;2024-03-02T00:59:11;48.50;;;24.85;;
17844;SDS011;9047;53.486;10.218;2024-03-02T01:01:42;48.20;;;24.73;;
17844;SDS011;9047;53.486;10.218;2024-03-02T01:04:09;48.15;;;24.02;;
17844;SDS011;9047;53.486;10.218;2024-03-02T01:06:39;44.92;;;23.30;;
17844;SDS011;9047;53.486;10.218;2024-03-02T01:09:06;49.50;;;24.48;;
17844;SDS011;9047;53.486;10.218;2024-03-02T01:11:34;47.05;;;24.70;;
17844;SDS011;9047;53.486;10.218;2024-03-02T01:14:02;48.88;;;24.70;;
17844;SDS011;9047;53.486;10.218;2024-03-02T01:16:31;51.85;;;25.88;;
17844;SDS011;9047;53.486;10.218;2024-03-02T01:19:02;50.85;;;25.45;;
17844;SDS011;9047;53.486;10.218;2024-03-02T01:21:37;54.10;;;26.63;;
17844;SDS011;9047;53.486;10.218;2024-03-02T01:24:05;49.47;;;24.65;;
17844;SDS011;9047;53.486;10.218;2024-03-02T01:26:33;47.58;;;24.05;;
17844;SDS011;9047;53.486;10.218;2024-03-02T01:29:00;49.97;;;24.88;;
17844;SDS011;9047;53.486;10.218;2024-03-02T01:31:29;53.25;;;25.67;;
17844;SDS011;9047;53.486;10.218;2024-03-02T01:33:56;50.85;;;24.48;;
17844;SDS011;9047;53.486;10.218;2024-03-02T01:36:24;49.65;;;24.50;;
17844;SDS011;9047;53.486;10.218;2024-03-02T01:38:52;50.88;;;25.52;;
17844;SDS011;9047;53.486;10.218;2024-03-02T01:41:18;50.00;;;26.40;;
17844;SDS011;9047;53.486;10.218;2024-03-02T01:43:46;49.33;;;25.55;;
17844;SDS011;9047;53.486;10.218;2024-03-02T01:46:13;50.15;;;25.85;;
17844;SDS011;9047;53.486;10.218;2024-03-02T01:48:43;48.08;;;25.58;;
17844;SDS011;9047;53.486;10.218;2024-03-02T01:51:10;51.70;;;25.42;;
17844;SDS011;9047;53.486;10.218;2024-03-02T01:53:39;48.13;;;25.48;;
17844;SDS011;9047;53.486;10.218;2024-03-02T01:56:06;51.72;;;25.63;;
17844;SDS011;9047;53.486;10.218;2024-03-02T01:58:33;49.78;;;24.67;;
17844;SDS011;9047;53.486;10.218;2024-03-02T02:01:03;48.30;;;25.88;;
17844;SDS011;9047;53.486;10.218;2024-03-02T02:03:30;49.40;;;25.90;;
17844;SDS011;9047;53.486;10.218;2024-03-02T02:05:59;49.60;;;24.75;;
17844;SDS011;9047;53.486;10.218;2024-03-02T02:08:26;50.15;;;25.48;;
17844;SDS011;9047;53.486;10.218;2024-03-02T02:10:57;49.03;;;24.13;;
17844;SDS011;9047;53.486;10.218;2024-03-02T02:13:24;49.88;;;25.00;;
17844;SDS011;9047;53.486;10.218;2024-03-02T02:15:52;49.60;;;25.30;;
17844;SDS011;9047;53.486;10.218;2024-03-02T02:18:23;50.40;;;25.67;;
17844;SDS011;9047;53.486;10.218;2024-03-02T02:20:54;48.38;;;24.25;;
17844;SDS011;9047;53.486;10.218;2024-03-02T02:23:35;50.72;;;25.90;;
17844;SDS011;9047;53.486;10.218;2024-03-02T02:26:02;51.22;;;25.75;;
17844;SDS011;9047;53.486;10.218;2024-03-02T02:28:36;49.95;;;25.50;;
17844;SDS011;9047;53.486;10.218;2024-03-02T02:31:11;50.75;;;25.73;;
17844;SDS011;9047;53.486;10.218;2024-03-02T02:33:39;45.20;;;23.50;;
17844;SDS011;9047;53.486;10.218;2024-03-02T02:36:06;51.90;;;25.52;;
17844;SDS011;9047;53.486;10.218;2024-03-02T02:38:38;47.85;;;24.65;;
17844;SDS011;9047;53.486;10.218;2024-03-02T02:41:07;50.08;;;24.55;;
17844;SDS011;9047;53.486;10.218;2024-03-02T02:43:40;45.70;;;24.17;;
17844;SDS011;9047;53.486;10.218;2024-03-02T02:46:07;49.47;;;24.23;;
17844;SDS011;9047;53.486;10.218;2024-03-02T02:48:36;47.67;;;25.15;;
17844;SDS011;9047;53.486;10.218;2024-03-02T02:51:04;50.03;;;25.05;;
17844;SDS011;9047;53.486;10.218;2024-03-02T02:53:37;50.85;;;25.98;;
17844;SDS011;9047;53.486;10.218;2024-03-02T02:56:08;49.58;;;24.25;;
17844;SDS011;9047;53.486;10.218;2024-03-02T02:58:39;51.67;;;25.38;;
17844;SDS011;9047;53.486;10.218;2024-03-02T03:01:06;50.92;;;25.83;;
17844;SDS011;9047;53.486;10.218;2024-03-02T03:03:39;49.78;;;24.83;;
17844;SDS011;9047;53.486;10.218;2024-03-02T03:06:07;46.58;;;24.58;;
17844;SDS011;9047;53.486;10.218;2024-03-02T03:08:39;50.15;;;25.52;;
17844;SDS011;9047;53.486;10.218;2024-03-02T03:11:06;51.00;;;24.95;;
17844;SDS011;9047;53.486;10.218;2024-03-02T03:13:34;49.53;;;25.67;;
17844;SDS011;9047;53.486;10.218;2024-03-02T03:16:02;51.90;;;24.73;;
17844;SDS011;9047;53.486;10.218;2024-03-02T03:18:29;48.22;;;24.45;;
17844;SDS011;9047;53.486;10.218;2024-03-02T03:21:02;49.97;;;24.58;;
17844;SDS011;9047;53.486;10.218;2024-03-02T03:23:31;50.53;;;24.52;;
17844;SDS011;9047;53.486;10.218;2024-03-02T03:26:00;51.08;;;25.02;;
17844;SDS011;9047;53.486;10.218;2024-03-02T03:28:27;47.38;;;24.00;;
17844;SDS011;9047;53.486;10.218;2024-03-02T03:30:57;51.20;;;24.92;;
17844;SDS011;9047;53.486;10.218;2024-03-02T03:33:30;48.88;;;25.48;;
17844;SDS011;9047;53.486;10.218;2024-03-02T03:35:57;48.97;;;25.60;;
17844;SDS011;9047;53.486;10.218;2024-03-02T03:38:24;49.45;;;25.02;;
17844;SDS011;9047;53.486;10.218;2024-03-02T03:40:52;46.78;;;23.08;;
17844;SDS011;9047;53.486;10.218;2024-03-02T03:43:22;48.38;;;24.52;;
17844;SDS011;9047;53.486;10.218;2024-03-02T03:45:52;46.65;;;24.38;;
17844;SDS011;9047;53.486;10.218;2024-03-02T03:48:19;48.30;;;24.13;;
17844;SDS011;9047;53.486;10.218;2024-03-02T03:50:47;47.03;;;24.05;;
17844;SDS011;9047;53.486;10.218;2024-03-02T03:53:15;45.17;;;23.83;;
17844;SDS011;9047;53.486;10.218;2024-03-02T03:55:44;47.45;;;24.58;;
17844;SDS011;9047;53.486;10.218;2024-03-02T03:58:13;45.22;;;23.15;;
17844;SDS011;9047;53.486;10.218;2024-03-02T04:00:43;48.33;;;24.90;;
17844;SDS011;9047;53.486;10.218;2024-03-02T04:03:11;48.72;;;24.45;;
17844;SDS011;9047;53.486;10.218;2024-03-02T04:05:38;47.65;;;24.00;;
17844;SDS011;9047;53.486;10.218;2024-03-02T04:08:06;44.58;;;23.42;;
17844;SDS011;9047;53.486;10.218;2024-03-02T04:10:35;48.42;;;24.17;;
17844;SDS011;9047;53.486;10.218;2024-03-02T04:13:02;43.03;;;23.02;;
17844;SDS011;9047;53.486;10.218;2024-03-02T04:15:30;46.33;;;23.77;;
17844;SDS011;9047;53.486;10.218;2024-03-02T04:17:59;42.05;;;23.27;;
17844;SDS011;9047;53.486;10.218;2024-03-02T04:20:26;46.03;;;23.45;;
17844;SDS011;9047;53.486;10.218;2024-03-02T04:23:03;38.70;;;21.63;;
17844;SDS011;9047;53.486;10.218;2024-03-02T04:25:33;43.75;;;22.65;;
17844;SDS011;9047;53.486;10.218;2024-03-02T04:28:01;42.10;;;22.70;;
17844;SDS011;9047;53.486;10.218;2024-03-02T04:30:28;39.80;;;21.08;;
17844;SDS011;9047;53.486;10.218;2024-03-02T04:32:56;39.35;;;21.70;;
17844;SDS011;9047;53.486;10.218;2024-03-02T04:35:25;40.17;;;21.45;;
17844;SDS011;9047;53.486;10.218;2024-03-02T04:37:52;39.28;;;21.42;;
17844;SDS011;9047;53.486;10.218;2024-03-02T04:40:19;42.00;;;22.67;;
17844;SDS011;9047;53.486;10.218;2024-03-02T04:42:47;41.08;;;22.42;;
17844;SDS011;9047;53.486;10.218;2024-03-02T04:45:20;38.20;;;20.75;;
17844;SDS011;9047;53.486;10.218;2024-03-02T04:47:47;42.25;;;22.20;;
17844;SDS011;9047;53.486;10.218;2024-03-02T04:50:14;39.53;;;21.30;;
17844;SDS011;9047;53.486;10.218;2024-03-02T04:52:43;46.00;;;22.73;;
17844;SDS011;9047;53.486;10.218;2024-03-02T04:55:10;38.83;;;21.88;;
17844;SDS011;9047;53.486;10.218;2024-03-02T04:58:10;42.35;;;22.33;;
17844;SDS011;9047;53.486;10.218;2024-03-02T05:00:37;38.80;;;21.13;;
17844;SDS011;9047;53.486;10.218;2024-03-02T05:03:05;41.65;;;22.80;;
17844;SDS011;9047;53.486;10.218;2024-03-02T05:05:35;39.75;;;21.75;;
17844;SDS011;9047;53.486;10.218;2024-03-02T05:08:06;41.75;;;22.70;;
17844;SDS011;9047;53.486;10.218;2024-03-02T05:10:37;40.35;;;22.35;;
17844;SDS011;9047;53.486;10.218;2024-03-02T05:13:05;44.63;;;22.50;;
17844;SDS011;9047;53.486;10.218;2024-03-02T05:15:31;45.00;;;21.92;;
17844;SDS011;9047;53.486;10.218;2024-03-02T05:17:59;43.88;;;23.40;;
17844;SDS011;9047;53.486;10.218;2024-03-02T05:20:30;44.20;;;22.38;;
17844;SDS011;9047;53.486;10.218;2024-03-02T05:22:58;42.63;;;23.23;;
17844;SDS011;9047;53.486;10.218;2024-03-02T05:25:26;43.60;;;22.63;;
17844;SDS011;9047;53.486;10.218;2024-03-02T05:27:54;43.45;;;23.23;;
17844;SDS011;9047;53.486;10.218;2024-03-02T05:30:23;45.58;;;22.58;;
17844;SDS011;9047;53.486;10.218;2024-03-02T05:32:51;44.38;;;22.90;;
17844;SDS011;9047;53.486;10.218;2024-03-02T05:35:20;40.50;;;21.38;;
17844;SDS011;9047;53.486;10.218;2024-03-02T05:37:47;43.97;;;22.67;;
17844;SDS011;9047;53.486;10.218;2024-03-02T05:40:14;41.00;;;22.50;;
17844;SDS011;9047;53.486;10.218;2024-03-02T05:42:45;45.80;;;22.70;;
17844;SDS011;9047;53.486;10.218;2024-03-02T05:45:13;42.67;;;22.63;;
17844;SDS011;9047;53.486;10.218;2024-03-02T05:47:41;38.00;;;22.20;;
17844;SDS011;9047;53.486;10.218;2024-03-02T05:50:09;42.00;;;23.02;;
17844;SDS011;9047;53.486;10.218;2024-03-02T05:52:37;41.65;;;22.58;;
17844;SDS011;9047;53.486;10.218;2024-03-02T05:55:07;42.55;;;22.17;;
17844;SDS011;9047;53.486;10.218;2024-03-02T05:57:36;39.78;;;21.85;;
17844;SDS011;9047;53.486;10.218;2024-03-02T06:00:22;39.28;;;21.25;;
17844;SDS011;9047;53.486;10.218;2024-03-02T06:02:50;38.33;;;20.90;;
17844;SDS011;9047;53.486;10.218;2024-03-02T06:05:16;40.22;;;21.83;;
17844;SDS011;9047;53.486;10.218;2024-03-02T06:07:44;42.22;;;22.08;;
17844;SDS011;9047;53.486;10.218;2024-03-02T06:10:12;43.67;;;22.98;;
17844;SDS011;9047;53.486;10.218;2024-03-02T06:12:42;41.38;;;21.92;;
17844;SDS011;9047;53.486;10.218;2024-03-02T06:15:09;38.30;;;21.08;;
17844;SDS011;9047;53.486;10.218;2024-03-02T06:17:38;42.85;;;21.95;;
17844;SDS011;9047;53.486;10.218;2024-03-02T06:20:07;40.90;;;21.80;;
17844;SDS011;9047;53.486;10.218;2024-03-02T06:22:37;38.40;;;21.40;;
17844;SDS011;9047;53.486;10.218;2024-03-02T06:25:04;41.05;;;21.77;;
17844;SDS011;9047;53.486;10.218;2024-03-02T06:27:35;40.00;;;21.67;;
17844;SDS011;9047;53.486;10.218;2024-03-02T06:30:05;42.60;;;21.40;;
17844;SDS011;9047;53.486;10.218;2024-03-02T06:32:34;44.63;;;22.40;;
17844;SDS011;9047;53.486;10.218;2024-03-02T06:35:03;42.47;;;21.85;;
17844;SDS011;9047;53.486;10.218;2024-03-02T06:37:33;42.17;;;22.27;;
17844;SDS011;9047;53.486;10.218;2024-03-02T06:40:01;41.78;;;22.08;;
17844;SDS011;9047;53.486;10.218;2024-03-02T06:42:30;42.45;;;22.60;;
17844;SDS011;9047;53.486;10.218;2024-03-02T06:44:59;40.85;;;22.00;;
17844;SDS011;9047;53.486;10.218;2024-03-02T06:47:26;40.50;;;22.45;;
17844;SDS011;9047;53.486;10.218;2024-03-02T06:49:53;40.75;;;22.30;;
17844;SDS011;9047;53.486;10.218;2024-03-02T06:52:24;43.58;;;22.25;;
17844;SDS011;9047;53.486;10.218;2024-03-02T06:54:54;41.75;;;21.52;;
17844;SDS011;9047;53.486;10.218;2024-03-02T06:57:20;40.28;;;21.50;;
17844;SDS011;9047;53.486;10.218;2024-03-02T06:59:49;41.80;;;22.55;;
17844;SDS011;9047;53.486;10.218;2024-03-02T07:02:18;42.15;;;22.65;;
17844;SDS011;9047;53.486;10.218;2024-03-02T07:04:46;41.80;;;23.13;;
17844;SDS011;9047;53.486;10.218;2024-03-02T07:07:16;42.13;;;22.30;;
17844;SDS011;9047;53.486;10.218;2024-03-02T07:09:47;40.83;;;22.40;;
17844;SDS011;9047;53.486;10.218;2024-03-02T07:12:16;41.55;;;22.48;;
17844;SDS011;9047;53.486;10.218;2024-03-02T07:14:44;42.50;;;21.45;;
17844;SDS011;9047;53.486;10.218;2024-03-02T07:17:36;39.58;;;21.55;;
17844;SDS011;9047;53.486;10.218;2024-03-02T07:20:04;41.20;;;22.42;;
17844;SDS011;9047;53.486;10.218;2024-03-02T07:22:34;39.88;;;22.23;;
17844;SDS011;9047;53.486;10.218;2024-03-02T07:25:05;40.10;;;22.20;;
17844;SDS011;9047;53.486;10.218;2024-03-02T07:27:33;37.80;;;20.98;;
17844;SDS011;9047;53.486;10.218;2024-03-02T07:30:02;38.50;;;21.55;;
17844;SDS011;9047;53.486;10.218;2024-03-02T07:32:32;38.92;;;22.13;;
17844;SDS011;9047;53.486;10.218;2024-03-02T07:35:03;38.58;;;21.48;;
17844;SDS011;9047;53.486;10.218;2024-03-02T07:37:33;38.15;;;21.42;;
17844;SDS011;9047;53.486;10.218;2024-03-02T07:40:00;38.97;;;20.70;;
17844;SDS011;9047;53.486;10.218;2024-03-02T07:42:30;40.35;;;21.00;;
17844;SDS011;9047;53.486;10.218;2024-03-02T07:45:00;40.22;;;21.13;;
17844;SDS011;9047;53.486;10.218;2024-03-02T07:47:37;37.15;;;20.38;;
17844;SDS011;9047;53.486;10.218;2024-03-02T07:50:07;37.10;;;20.88;;
17844;SDS011;9047;53.486;10.218;2024-03-02T07:52:36;42.03;;;21.73;;
17844;SDS011;9047;53.486;10.218;2024-03-02T07:55:05;36.90;;;20.63;;
17844;SDS011;9047;53.486;10.218;2024-03-02T07:57:36;37.95;;;20.80;;
17844;SDS011;9047;53.486;10.218;2024-03-02T08:00:06;37.80;;;20.52;;
17844;SDS011;9047;53.486;10.218;2024-03-02T08:02:34;39.25;;;21.77;;
17844;SDS011;9047;53.486;10.218;2024-03-02T08:05:01;37.45;;;20.88;;
17844;SDS011;9047;53.486;10.218;2024-03-02T08:07:30;35.92;;;20.10;;
17844;SDS011;9047;53.486;10.218;2024-03-02T08:09:59;36.97;;;20.50;;
17844;SDS011;9047;53.486;10.218;2024-03-02T08:12:27;34.55;;;19.73;;
17844;SDS011;9047;53.486;10.218;2024-03-02T08:15:04;33.80;;;19.52;;
17844;SDS011;9047;53.486;10.218;2024-03-02T08:17:53;35.30;;;20.58;;
17844;SDS011;9047;53.486;10.218;2024-03-02T08:20:23;35.15;;;19.23;;
17844;SDS011;9047;53.486;10.218;2024-03-02T08:22:53;34.45;;;20.48;;
17844;SDS011;9047;53.486;10.218;2024-03-02T08:25:22;34.17;;;19.63;;
17844;SDS011;9047;53.486;10.218;2024-03-02T08:27:48;34.70;;;19.52;;
17844;SDS011;9047;53.486;10.218;2024-03-02T08:30:17;33.17;;;19.02;;
17844;SDS011;9047;53.486;10.218;2024-03-02T08:32:45;36.42;;;19.58;;
17844;SDS011;9047;53.486;10.218;2024-03-02T08:35:13;33.53;;;19.85;;
17844;SDS011;9047;53.486;10.218;2024-03-02T08:37:39;33.70;;;19.83;;
17844;SDS011;9047;53.486;10.218;2024-03-02T08:40:12;33.25;;;19.45;;
17844;SDS011;9047;53.486;10.218;2024-03-02T08:42:40;36.13;;;19.98;;
17844;SDS011;9047;53.486;10.218;2024-03-02T08:45:09;33.20;;;19.35;;
17844;SDS011;9047;53.486;10.218;2024-03-02T08:50:15;33.47;;;19.65;;
17844;SDS011;9047;53.486;10.218;2024-03-02T08:52:42;38.22;;;20.65;;
17844;SDS011;9047;53.486;10.218;2024-03-02T08:55:14;34.72;;;20.00;;
17844;SDS011;9047;53.486;10.218;2024-03-02T08:57:41;32.75;;;19.40;;
17844;SDS011;9047;53.486;10.218;2024-03-02T09:00:09;37.15;;;19.90;;
17844;SDS011;9047;53.486;10.218;2024-03-02T09:02:36;33.92;;;19.33;;
17844;SDS011;9047;53.486;10.218;2024-03-02T09:05:11;32.08;;;19.42;;
17844;SDS011;9047;53.486;10.218;2024-03-02T09:07:42;33.47;;;19.25;;
17844;SDS011;9047;53.486;10.218;2024-03-02T09:10:13;35.15;;;20.20;;
17844;SDS011;9047;53.486;10.218;2024-03-02T09:12:42;31.25;;;18.23;;
17844;SDS011;9047;53.486;10.218;2024-03-02T09:15:12;32.78;;;18.63;;
17844;SDS011;9047;53.486;10.218;2024-03-02T09:17:53;31.73;;;19.27;;
17844;SDS011;9047;53.486;10.218;2024-03-02T09:20:28;30.73;;;18.38;;
17844;SDS011;9047;53.486;10.218;2024-03-02T09:22:58;31.65;;;17.95;;
17844;SDS011;9047;53.486;10.218;2024-03-02T09:25:25;31.92;;;17.90;;
17844;SDS011;9047;53.486;10.218;2024-03-02T09:27:52;29.77;;;17.90;;
17844;SDS011;9047;53.486;10.218;2024-03-02T09:30:20;30.17;;;17.95;;
17844;SDS011;9047;53.486;10.218;2024-03-02T09:32:47;32.70;;;18.05;;
17844;SDS011;9047;53.486;10.218;2024-03-02T09:35:32;29.10;;;17.25;;
17844;SDS011;9047;53.486;10.218;2024-03-02T09:38:05;29.90;;;18.00;;
17844;SDS011;9047;53.486;10.218;2024-03-02T09:40:34;29.45;;;17.58;;
17844;SDS011;9047;53.486;10.218;2024-03-02T09:43:03;30.40;;;17.67;;
17844;SDS011;9047;53.486;10.218;2024-03-02T09:45:30;30.20;;;17.42;;
17844;SDS011;9047;53.486;10.218;2024-03-02T09:47:58;25.67;;;16.30;;
17844;SDS011;9047;53.486;10.218;2024-03-02T09:50:26;23.60;;;14.88;;
17844;SDS011;9047;53.486;10.218;2024-03-02T09:52:56;25.33;;;15.23;;
17844;SDS011;9047;53.486;10.218;2024-03-02T09:55:27;25.90;;;14.50;;
17844;SDS011;9047;53.486;10.218;2024-03-02T09:57:55;25.73;;;14.50;;
17844;SDS011;9047;53.486;10.218;2024-03-02T10:00:23;22.15;;;14.27;;
17844;SDS011;9047;53.486;10.218;2024-03-02T10:02:55;23.23;;;13.55;;
17844;SDS011;9047;53.486;10.218;2024-03-02T10:05:24;23.23;;;13.98;;
17844;SDS011;9047;53.486;10.218;2024-03-02T10:07:58;21.10;;;13.20;;
17844;SDS011;9047;53.486;10.218;2024-03-02T10:10:35;22.33;;;13.70;;
17844;SDS011;9047;53.486;10.218;2024-03-02T10:13:23;20.55;;;13.65;;
17844;SDS011;9047;53.486;10.218;2024-03-02T10:15:56;21.00;;;12.95;;
17844;SDS011;9047;53.486;10.218;2024-03-02T10:18:44;22.92;;;12.98;;
17844;SDS011;9047;53.486;10.218;2024-03-02T10:21:13;19.85;;;12.57;;
17844;SDS011;9047;53.486;10.218;2024-03-02T10:23:42;20.90;;;12.77;;
17844;SDS011;9047;53.486;10.218;2024-03-02T10:26:35;21.60;;;13.40;;
17844;SDS011;9047;53.486;10.218;2024-03-02T10:29:07;19.67;;;12.23;;
17844;SDS011;9047;53.486;10.218;2024-03-02T10:31:36;19.95;;;12.82;;
17844;SDS011;9047;53.486;10.218;2024-03-02T10:34:04;18.50;;;12.15;;
17844;SDS011;9047;53.486;10.218;2024-03-02T10:36:32;19.17;;;12.50;;
17844;SDS011;9047;53.486;10.218;2024-03-02T10:39:02;20.52;;;12.07;;
17844;SDS011;9047;53.486;10.218;2024-03-02T10:41:35;20.95;;;12.70;;
17844;SDS011;9047;53.486;10.218;2024-03-02T10:44:06;20.95;;;11.77;;
17844;SDS011;9047;53.486;10.218;2024-03-02T10:46:38;18.67;;;12.02;;
17844;SDS011;9047;53.486;10.218;2024-03-02T10:49:18;18.10;;;11.90;;
17844;SDS011;9047;53.486;10.218;2024-03-02T10:51:47;18.10;;;11.25;;
17844;SDS011;9047;53.486;10.218;2024-03-02T10:54:18;20.00;;;11.68;;
17844;SDS011;9047;53.486;10.218;2024-03-02T10:57:28;17.23;;;11.25;;
17844;SDS011;9047;53.486;10.218;2024-03-02T11:00:08;17.52;;;11.05;;
17844;SDS011;9047;53.486;10.218;2024-03-02T11:02:46;18.50;;;11.50;;
17844;SDS011;9047;53.486;10.218;2024-03-02T11:05:22;18.35;;;11.05;;
17844;SDS011;9047;53.486;10.218;2024-03-02T11:07:57;17.08;;;10.80;;
17844;SDS011;9047;53.486;10.218;2024-03-02T11:10:30;17.50;;;10.50;;
17844;SDS011;9047;53.486;10.218;2024-03-02T11:13:13;19.83;;;10.98;;
17844;SDS011;9047;53.486;10.218;2024-03-02T11:15:41;17.10;;;10.90;;
17844;SDS011;9047;53.486;10.218;2024-03-02T11:18:09;17.13;;;10.50;;
17844;SDS011;9047;53.486;10.218;2024-03-02T11:20:38;16.55;;;10.48;;
17844;SDS011;9047;53.486;10.218;2024-03-02T11:23:06;18.42;;;10.65;;
17844;SDS011;9047;53.486;10.218;2024-03-02T11:25:36;15.63;;;9.77;;
17844;SDS011;9047;53.486;10.218;2024-03-02T11:28:04;16.25;;;10.23;;
17844;SDS011;9047;53.486;10.218;2024-03-02T11:30:52;16.23;;;10.30;;
17844;SDS011;9047;53.486;10.218;2024-03-02T11:33:22;16.00;;;10.10;;
17844;SDS011;9047;53.486;10.218;2024-03-02T11:36:01;16.65;;;10.85;;
17844;SDS011;9047;53.486;10.218;2024-03-02T11:38:33;16.27;;;10.63;;
17844;SDS011;9047;53.486;10.218;2024-03-02T11:41:05;16.75;;;10.18;;
17844;SDS011;9047;53.486;10.218;2024-03-02T11:43:39;18.50;;;11.23;;
17844;SDS011;9047;53.486;10.218;2024-03-02T11:46:10;16.08;;;10.05;;
17844;SDS011;9047;53.486;10.218;2024-03-02T11:48:39;16.70;;;10.48;;
17844;SDS011;9047;53.486;10.218;2024-03-02T11:51:09;16.75;;;10.57;;
17844;SDS011;9047;53.486;10.218;2024-03-02T11:53:38;15.80;;;10.38;;
17844;SDS011;9047;53.486;10.218;2024-03-02T11:56:06;15.20;;;10.10;;
17844;SDS011;9047;53.486;10.218;2024-03-02T11:58:36;16.83;;;10.13;;
17844;SDS011;9047;53.486;10.218;2024-03-02T12:01:06;16.02;;;10.20;;
17844;SDS011;9047;53.486;10.218;2024-03-02T12:03:34;16.05;;;10.80;;
17844;SDS011;9047;53.486;10.218;2024-03-02T12:06:02;16.88;;;10.98;;
17844;SDS011;9047;53.486;10.218;2024-03-02T12:08:29;15.07;;;9.82;;
17844;SDS011;9047;53.486;10.218;2024-03-02T12:10:58;14.00;;;9.27;;
17844;SDS011;9047;53.486;10.218;2024-03-02T12:13:26;14.98;;;9.45;;
17844;SDS011;9047;53.486;10.218;2024-03-02T12:15:54;14.52;;;9.15;;
17844;SDS011;9047;53.486;10.218;2024-03-02T12:18:21;13.77;;;9.23;;
17844;SDS011;9047;53.486;10.218;2024-03-02T12:20:53;14.02;;;9.25;;
17844;SDS011;9047;53.486;10.218;2024-03-02T12:23:22;14.10;;;9.02;;
17844;SDS011;9047;53.486;10.218;2024-03-02T12:25:52;16.45;;;9.32;;
17844;SDS011;9047;53.486;10.218;2024-03-02T12:28:19;16.15;;;9.48;;
17844;SDS011;9047;53.486;10.218;2024-03-02T12:30:47;14.68;;;9.00;;
17844;SDS011;9047;53.486;10.218;2024-03-02T12:33:16;13.27;;;9.13;;
17844;SDS011;9047;53.486;10.218;2024-03-02T12:35:44;18.55;;;10.68;;
17844;SDS011;9047;53.486;10.218;2024-03-02T12:38:15;16.08;;;9.88;;
17844;SDS011;9047;53.486;10.218;2024-03-02T12:40:42;17.15;;;10.23;;
17844;SDS011;9047;53.486;10.218;2024-03-02T12:43:11;13.60;;;9.30;;
17844;SDS011;9047;53.486;10.218;2024-03-02T12:45:41;16.13;;;10.30;;
17844;SDS011;9047;53.486;10.218;2024-03-02T12:48:10;15.85;;;9.35;;
17844;SDS011;9047;53.486;10.218;2024-03-02T12:50:39;16.30;;;10.18;;
17844;SDS011;9047;53.486;10.218;2024-03-02T12:53:15;15.43;;;9.98;;
17844;SDS011;9047;53.486;10.218;2024-03-02T12:55:42;14.70;;;9.35;;
17844;SDS011;9047;53.486;10.218;2024-03-02T12:58:16;15.25;;;9.65;;
17844;SDS011;9047;53.486;10.218;2024-03-02T13:00:45;14.02;;;9.32;;
17844;SDS011;9047;53.486;10.218;2024-03-02T13:03:13;16.13;;;9.60;;
17844;SDS011;9047;53.486;10.218;2024-03-02T13:05:47;17.00;;;10.30;;
17844;SDS011;9047;53.486;10.218;2024-03-02T13:08:20;13.57;;;9.07;;
17844;SDS011;9047;53.486;10.218;2024-03-02T13:10:52;16.38;;;10.20;;
17844;SDS011;9047;53.486;10.218;2024-03-02T13:13:21;14.95;;;9.48;;
17844;SDS011;9047;53.486;10.218;2024-03-02T13:15:54;14.38;;;9.48;;
17844;SDS011;9047;53.486;10.218;2024-03-02T13:18:23;14.55;;;9.63;;
17844;SDS011;9047;53.486;10.218;2024-03-02T13:20:50;14.73;;;9.43;;
17844;SDS011;9047;53.486;10.218;2024-03-02T13:23:17;15.40;;;10.23;;
17844;SDS011;9047;53.486;10.218;2024-03-02T13:25:51;17.55;;;10.13;;
17844;SDS011;9047;53.486;10.218;2024-03-02T13:28:18;16.48;;;10.18;;
17844;SDS011;9047;53.486;10.218;2024-03-02T13:30:46;17.38;;;10.57;;
17844;SDS011;9047;53.486;10.218;2024-03-02T13:33:13;16.38;;;10.35;;
17844;SDS011;9047;53.486;10.218;2024-03-02T13:35:49;16.85;;;10.82;;
17844;SDS011;9047;53.486;10.218;2024-03-02T13:38:20;14.85;;;9.88;;
17844;SDS011;9047;53.486;10.218;2024-03-02T13:40:52;14.57;;;9.82;;
17844;SDS011;9047;53.486;10.218;2024-03-02T13:43:19;16.90;;;10.40;;
17844;SDS011;9047;53.486;10.218;2024-03-02T13:45:49;14.25;;;9.38;;
17844;SDS011;9047;53.486;10.218;2024-03-02T13:48:17;15.98;;;10.02;;
17844;SDS011;9047;53.486;10.218;2024-03-02T13:50:45;15.35;;;9.60;;
17844;SDS011;9047;53.486;10.218;2024-03-02T13:53:15;15.43;;;9.63;;
17844;SDS011;9047;53.486;10.218;2024-03-02T13:55:47;16.83;;;9.65;;
17844;SDS011;9047;53.486;10.218;2024-03-02T13:58:16;14.48;;;9.00;;
17844;SDS011;9047;53.486;10.218;2024-03-02T14:00:46;15.65;;;9.80;;
17844;SDS011;9047;53.486;10.218;2024-03-02T14:03:17;14.02;;;8.65;;
17844;SDS011;9047;53.486;10.218;2024-03-02T14:05:48;16.17;;;9.52;;
17844;SDS011;9047;53.486;10.218;2024-03-02T14:08:17;14.70;;;9.40;;
17844;SDS011;9047;53.486;10.218;2024-03-02T14:10:45;15.10;;;8.93;;
17844;SDS011;9047;53.486;10.218;2024-03-02T14:13:15;15.43;;;9.10;;
17844;SDS011;9047;53.486;10.218;2024-03-02T14:15:44;15.68;;;9.77;;
17844;SDS011;9047;53.486;10.218;2024-03-02T14:18:12;14.65;;;9.20;;
17844;SDS011;9047;53.486;10.218;2024-03-02T14:20:40;16.80;;;10.20;;
17844;SDS011;9047;53.486;10.218;2024-03-02T14:23:08;15.75;;;9.30;;
17844;SDS011;9047;53.486;10.218;2024-03-02T14:25:36;16.90;;;10.00;;
17844;SDS011;9047;53.486;10.218;2024-03-02T14:28:05;16.75;;;10.02;;
17844;SDS011;9047;53.486;10.218;2024-03-02T14:30:37;14.73;;;9.60;;
17844;SDS011;9047;53.486;10.218;2024-03-02T14:33:06;13.93;;;9.07;;
17844;SDS011;9047;53.486;10.218;2024-03-02T14:35:36;15.63;;;9.77;;
17844;SDS011;9047;53.486;10.218;2024-03-02T14:38:03;14.80;;;9.45;;
17844;SDS011;9047;53.486;10.218;2024-03-02T14:40:31;13.90;;;9.32;;
17844;SDS011;9047;53.486;10.218;2024-03-02T14:42:58;15.88;;;9.82;;